createdAt,value
2023-03-18T00:01:17.535Z,39.20
2023-03-18T00:06:31.467Z,42.40
2023-03-18T00:11:34.638Z,43.20
2023-03-18T00:16:37.338Z,42.00
2023-03-18T00:21:47.841Z,42.70
2023-03-18T00:26:59.094Z,41.10
2023-03-18T00:32:09.229Z,42.60
2023-03-18T00:37:20.089Z,41.30
2023-03-18T00:42:25.792Z,38.50
2023-03-18T00:47:33.593Z,40.60
2023-03-18T00:52:57.034Z,45.00
2023-03-18T00:58:03.729Z,46.00
2023-03-18T01:03:15.932Z,46.40
2023-03-18T01:08:44.305Z,47.40
2023-03-18T01:13:53.013Z,47.30
2023-03-18T01:19:00.542Z,39.50
2023-03-18T01:24:04.435Z,33.50
2023-03-18T01:29:12.526Z,33.10
2023-03-18T01:34:29.442Z,30.80
2023-03-18T01:39:37.170Z,31.20
2023-03-18T01:44:47.107Z,31.70
2023-03-18T01:49:52.453Z,31.20
2023-03-18T01:55:06.261Z,31.60
2023-03-18T02:00:13.015Z,31.00
2023-03-18T02:05:58.881Z,30.70
2023-03-18T02:11:09.318Z,30.80
2023-03-18T02:16:59.532Z,31.20
2023-03-18T02:22:29.931Z,32.10
2023-03-18T02:27:45.023Z,31.70
2023-03-18T02:32:51.238Z,32.10
2023-03-18T02:37:53.849Z,32.80
2023-03-18T02:43:17.742Z,29.00
2023-03-18T02:48:26.190Z,29.20
2023-03-18T02:53:28.957Z,28.00
2023-03-18T02:58:39.326Z,29.30
2023-03-18T03:03:46.457Z,28.30
2023-03-18T03:08:57.422Z,28.30
2023-03-18T03:14:00.819Z,28.60
2023-03-18T03:19:06.641Z,27.30
2023-03-18T03:24:16.442Z,27.90
2023-03-18T03:29:19.460Z,28.40
2023-03-18T03:34:24.993Z,28.20
2023-03-18T03:39:33.813Z,30.10
2023-03-18T03:44:52.264Z,29.90
2023-03-18T03:49:58.455Z,30.70
2023-03-18T03:55:14.168Z,30.00
2023-03-18T04:00:20.648Z,31.40
2023-03-18T04:05:33.647Z,29.00
2023-03-18T04:10:58.178Z,27.10
2023-03-18T04:16:17.264Z,32.70
2023-03-18T04:21:32.538Z,31.30
2023-03-18T04:26:39.389Z,33.10
2023-03-18T04:31:49.621Z,31.40
2023-03-18T04:36:52.736Z,31.90
2023-03-18T04:41:59.235Z,30.20
2023-03-18T04:47:19.509Z,31.10
2023-03-18T04:52:30.658Z,30.00
2023-03-18T04:57:42.614Z,29.20
2023-03-18T05:02:48.188Z,30.10
2023-03-18T05:07:50.581Z,30.60
2023-03-18T05:12:56.526Z,29.60
2023-03-18T05:18:06.834Z,29.80
2023-03-18T05:23:10.488Z,28.90
2023-03-18T05:34:19.187Z,29.30
2023-03-18T05:39:22.440Z,29.40
2023-03-18T05:44:25.941Z,27.80
2023-03-18T05:49:31.471Z,30.40
2023-03-18T05:54:51.490Z,35.00
2023-03-18T06:00:08.981Z,31.80
2023-03-18T06:05:22.975Z,30.30
2023-03-18T06:10:26.457Z,31.60
2023-03-18T06:15:30.591Z,32.30
2023-03-18T06:20:42.498Z,31.00
2023-03-18T06:25:49.516Z,32.40
2023-03-18T06:30:58.058Z,34.00
2023-03-18T06:36:24.981Z,34.10
2023-03-18T06:41:33.403Z,34.20
2023-03-18T06:46:57.254Z,35.00
2023-03-18T06:52:11.777Z,36.60
2023-03-18T06:57:20.501Z,32.70
2023-03-18T07:02:39.388Z,37.80
2023-03-18T07:07:43.164Z,31.90
2023-03-18T07:13:05.360Z,39.40
2023-03-18T07:18:08.754Z,35.70
2023-03-18T07:23:20.247Z,20.90
2023-03-18T07:28:24.870Z,19.00
2023-03-18T07:33:27.471Z,18.70
2023-03-18T07:38:30.941Z,18.90
2023-03-18T07:43:45.619Z,21.00
2023-03-18T07:49:09.600Z,20.50
2023-03-18T07:54:32.853Z,22.20
2023-03-18T07:59:43.631Z,20.00
2023-03-18T08:04:59.253Z,19.00
2023-03-18T08:10:25.338Z,18.70
2023-03-18T08:15:33.121Z,17.50
2023-03-18T08:20:48.380Z,16.40
2023-03-18T08:26:26.976Z,13.10
2023-03-18T08:31:39.725Z,12.50
2023-03-18T08:36:43.160Z,11.20
2023-03-18T08:41:45.981Z,10.80
2023-03-18T08:46:52.795Z,9.90
2023-03-18T08:52:07.228Z,8.00
2023-03-18T08:57:10.675Z,7.60
2023-03-18T09:02:24.950Z,7.00
2023-03-18T09:07:28.532Z,6.60
2023-03-18T09:12:33.715Z,6.50
2023-03-18T09:18:12.257Z,6.20
2023-03-18T09:23:49.728Z,6.40
2023-03-18T09:29:01.767Z,6.90
2023-03-18T09:34:10.022Z,7.20
2023-03-18T09:39:22.815Z,6.40
2023-03-18T09:44:38.870Z,7.30
2023-03-18T09:50:25.327Z,5.70
2023-03-18T09:55:40.238Z,5.30
2023-03-18T10:00:47.956Z,5.50
2023-03-18T10:05:57.127Z,5.60
2023-03-18T10:11:06.901Z,6.30
2023-03-18T10:16:20.572Z,5.60
2023-03-18T10:21:52.897Z,5.50
2023-03-18T10:27:19.174Z,5.60
2023-03-18T10:33:08.589Z,4.70
2023-03-18T10:38:23.195Z,3.90
2023-03-18T10:43:39.366Z,5.00
2023-03-18T10:49:00.926Z,5.40
2023-03-18T10:54:27.951Z,4.80
2023-03-18T10:59:30.957Z,4.40
2023-03-18T11:04:46.507Z,6.70
2023-03-18T11:09:48.472Z,4.00
2023-03-18T11:15:00.745Z,4.50
2023-03-18T11:20:25.460Z,4.40
2023-03-18T11:25:29.267Z,4.50
2023-03-18T11:30:56.203Z,4.50
2023-03-18T11:36:37.672Z,4.20
2023-03-18T11:42:39.996Z,4.80
2023-03-18T11:47:46.508Z,5.20
2023-03-18T11:52:58.756Z,4.20
2023-03-18T11:58:55.433Z,4.90
2023-03-18T12:05:00.802Z,4.60
2023-03-18T12:10:54.453Z,4.90
2023-03-18T12:16:49.501Z,4.80
2023-03-18T12:22:04.294Z,5.20
2023-03-18T12:27:44.824Z,6.20
2023-03-18T12:33:16.209Z,5.10
2023-03-18T12:38:41.849Z,5.80
2023-03-18T12:44:15.028Z,5.50
2023-03-18T12:49:53.694Z,5.70
2023-03-18T12:55:11.454Z,5.80
2023-03-18T13:00:26.281Z,6.30
2023-03-18T13:06:05.579Z,5.30
2023-03-18T13:11:34.736Z,5.90
2023-03-18T13:16:41.381Z,5.80
2023-03-18T13:22:18.429Z,6.30
2023-03-18T13:27:38.360Z,5.10
2023-03-18T13:32:55.901Z,5.20
2023-03-18T13:38:34.107Z,8.10
2023-03-18T13:43:49.580Z,4.10
2023-03-18T13:48:59.893Z,4.10
2023-03-18T13:54:13.419Z,3.70
2023-03-18T13:59:37.382Z,3.50
2023-03-18T14:04:52.088Z,4.70
2023-03-18T14:10:18.318Z,3.50
2023-03-18T14:15:45.427Z,3.60
2023-03-18T14:21:04.519Z,3.70
2023-03-18T14:26:43.097Z,3.50
2023-03-18T14:32:11.684Z,3.80
2023-03-18T14:37:24.196Z,4.20
2023-03-18T14:42:58.475Z,4.30
2023-03-18T14:48:29.346Z,3.80
2023-03-18T14:53:57.132Z,3.80
2023-03-18T14:59:26.060Z,3.80
2023-03-18T15:04:48.721Z,3.60
2023-03-18T15:10:19.930Z,3.80
2023-03-18T15:15:39.621Z,3.80
2023-03-18T15:21:07.121Z,4.00
2023-03-18T15:26:53.742Z,3.90
2023-03-18T15:32:56.017Z,4.70
2023-03-18T15:38:12.888Z,3.90
2023-03-18T15:43:27.255Z,3.80
2023-03-18T15:48:43.300Z,3.50
2023-03-18T15:53:52.963Z,4.20
2023-03-18T15:59:22.323Z,3.50
2023-03-18T16:04:30.861Z,4.00
2023-03-18T16:09:41.378Z,4.00
2023-03-18T16:14:49.947Z,3.70
2023-03-18T16:19:55.704Z,4.00
2023-03-18T16:24:58.098Z,3.90
2023-03-18T16:30:00.932Z,4.10
2023-03-18T16:35:13.457Z,3.90
2023-03-18T16:40:28.475Z,4.30
2023-03-18T16:45:43.736Z,4.20
2023-03-18T16:51:09.678Z,4.40
2023-03-18T16:56:39.826Z,4.00
2023-03-18T17:01:43.946Z,4.90
2023-03-18T17:06:48.518Z,6.10
2023-03-18T17:11:58.271Z,5.60
2023-03-18T17:17:12.002Z,6.00
2023-03-18T17:22:33.747Z,6.70
2023-03-18T17:27:46.723Z,6.30
2023-03-18T17:32:50.497Z,6.00
2023-03-18T17:37:57.328Z,6.00
2023-03-18T17:43:04.116Z,6.50
2023-03-18T17:48:26.034Z,9.10
2023-03-18T17:53:38.566Z,10.40
2023-03-18T17:58:44.776Z,10.90
2023-03-18T18:03:47.874Z,11.70
2023-03-18T18:08:51.531Z,13.70
2023-03-18T18:13:58.185Z,14.80
2023-03-18T18:19:08.795Z,16.10
2023-03-18T18:24:26.238Z,18.10
2023-03-18T18:29:32.621Z,20.50
2023-03-18T18:34:39.028Z,23.80
2023-03-18T18:39:43.056Z,24.70
2023-03-18T18:44:54.440Z,24.50
2023-03-18T18:50:01.986Z,24.30
2023-03-18T18:55:06.992Z,23.40
2023-03-18T19:00:20.774Z,24.70
2023-03-18T19:05:23.789Z,24.20
2023-03-18T19:10:30.845Z,24.00
2023-03-18T19:15:43.577Z,24.50
2023-03-18T19:20:48.251Z,22.50
2023-03-18T19:25:54.338Z,25.80
2023-03-18T19:31:04.986Z,22.90
2023-03-18T19:36:16.656Z,21.30
2023-03-18T19:41:19.879Z,21.70
2023-03-18T19:46:39.337Z,21.30
2023-03-18T19:51:49.744Z,22.70
2023-03-18T19:56:54.184Z,21.20
2023-03-18T20:01:58.766Z,21.90
2023-03-18T20:07:04.670Z,23.10
2023-03-18T20:12:40.250Z,25.90
2023-03-18T20:17:45.647Z,24.00
2023-03-18T20:22:57.057Z,23.30
2023-03-18T20:28:01.216Z,29.90
2023-03-18T20:33:04.541Z,23.50
2023-03-18T20:38:38.103Z,24.40
2023-03-18T20:43:41.298Z,26.40
2023-03-18T20:48:44.439Z,26.60
2023-03-18T20:53:48.881Z,26.40
2023-03-18T20:58:53.370Z,25.80
2023-03-18T21:04:00.504Z,26.80
2023-03-18T21:09:06.950Z,27.80
2023-03-18T21:14:15.561Z,27.00
2023-03-18T21:19:25.391Z,30.80
2023-03-18T21:24:30.651Z,30.70
2023-03-18T21:29:34.114Z,31.70
2023-03-18T21:34:36.977Z,31.00
2023-03-18T21:39:44.001Z,28.30
2023-03-18T21:44:46.404Z,31.00
2023-03-18T21:49:51.777Z,27.80
2023-03-18T21:54:58.947Z,29.10
2023-03-18T22:00:03.535Z,30.10
2023-03-18T22:05:26.146Z,31.80
2023-03-18T22:10:31.796Z,29.20
2023-03-18T22:15:56.709Z,29.40
2023-03-18T22:21:01.249Z,30.40
2023-03-18T22:26:07.829Z,28.90
2023-03-18T22:31:18.203Z,27.20
2023-03-18T22:36:30.082Z,26.80
2023-03-18T22:41:38.054Z,29.20
2023-03-18T22:46:46.597Z,28.00
2023-03-18T22:52:30.519Z,26.90
2023-03-18T22:57:33.474Z,23.50
2023-03-18T23:02:42.774Z,22.50
2023-03-18T23:07:50.721Z,21.30
2023-03-18T23:12:53.550Z,20.60
2023-03-18T23:17:56.469Z,19.30
2023-03-18T23:23:01.867Z,20.70
2023-03-18T23:28:04.812Z,20.70
2023-03-18T23:33:09.681Z,20.60
2023-03-18T23:38:12.175Z,20.60
2023-03-18T23:43:33.078Z,21.00
2023-03-18T23:48:35.914Z,21.40
2023-03-18T23:53:40.837Z,21.70
2023-03-18T23:58:43.670Z,20.60
